sensor_id;sensor_type;location;lat;lon;timestamp;P1;durP1;ratioP1;P2;durP2;ratioP2
49015;SDS011;34830;44.064;12.566;2023-06-24T00:02:06;12.27;;;4.32;;
49015;SDS011;34830;44.064;12.566;2023-06-24T00:04:32;16.92;;;5.30;;
49015;SDS011;34830;44.064;12.566;2023-06-24T00:06:57;12.93;;;4.47;;
49015;SDS011;34830;44.064;12.566;2023-06-24T00:09:25;13.13;;;4.43;;
49015;SDS011;34830;44.064;12.566;2023-06-24T00:11:53;14.73;;;5.60;;
49015;SDS011;34830;44.064;12.566;2023-06-24T00:14:20;13.38;;;4.85;;
49015;SDS011;34830;44.064;12.566;2023-06-24T00:16:46;13.52;;;4.82;;
49015;SDS011;34830;44.064;12.566;2023-06-24T00:19:14;16.33;;;4.97;;
49015;SDS011;34830;44.064;12.566;2023-06-24T00:21:40;10.75;;;4.45;;
49015;SDS011;34830;44.064;12.566;2023-06-24T00:24:06;10.38;;;4.50;;
49015;SDS011;34830;44.064;12.566;2023-06-24T00:26:31;20.67;;;5.20;;
49015;SDS011;34830;44.064;12.566;2023-06-24T00:28:58;12.00;;;3.85;;
49015;SDS011;34830;44.064;12.566;2023-06-24T00:31:23;14.32;;;4.60;;
49015;SDS011;34830;44.064;12.566;2023-06-24T00:33:49;13.85;;;4.70;;
49015;SDS011;34830;44.064;12.566;2023-06-24T00:36:17;16.52;;;5.50;;
49015;SDS011;34830;44.064;12.566;2023-06-24T00:38:43;10.55;;;4.65;;
49015;SDS011;34830;44.064;12.566;2023-06-24T00:41:09;9.90;;;4.40;;
49015;SDS011;34830;44.064;12.566;2023-06-24T00:43:37;11.70;;;4.45;;
49015;SDS011;34830;44.064;12.566;2023-06-24T00:46:04;14.77;;;4.95;;
49015;SDS011;34830;44.064;12.566;2023-06-24T00:48:31;15.32;;;5.35;;
49015;SDS011;34830;44.064;12.566;2023-06-24T00:50:57;10.13;;;4.53;;
49015;SDS011;34830;44.064;12.566;2023-06-24T00:53:25;13.25;;;4.50;;
49015;SDS011;34830;44.064;12.566;2023-06-24T00:55:51;14.68;;;4.60;;
49015;SDS011;34830;44.064;12.566;2023-06-24T00:58:18;8.52;;;5.00;;
49015;SDS011;34830;44.064;12.566;2023-06-24T01:00:46;13.43;;;4.75;;
49015;SDS011;34830;44.064;12.566;2023-06-24T01:03:13;15.25;;;6.38;;
49015;SDS011;34830;44.064;12.566;2023-06-24T01:05:40;9.13;;;4.38;;
49015;SDS011;34830;44.064;12.566;2023-06-24T01:08:06;11.98;;;5.57;;
49015;SDS011;34830;44.064;12.566;2023-06-24T01:10:32;13.38;;;4.65;;
49015;SDS011;34830;44.064;12.566;2023-06-24T01:12:58;23.65;;;6.18;;
49015;SDS011;34830;44.064;12.566;2023-06-24T01:15:24;16.88;;;5.38;;
49015;SDS011;34830;44.064;12.566;2023-06-24T01:32:59;11.45;;;4.00;;
49015;SDS011;34830;44.064;12.566;2023-06-24T01:35:28;11.65;;;4.03;;
49015;SDS011;34830;44.064;12.566;2023-06-24T01:37:56;12.43;;;3.15;;
49015;SDS011;34830;44.064;12.566;2023-06-24T01:40:31;15.25;;;3.85;;
49015;SDS011;34830;44.064;12.566;2023-06-24T01:42:58;14.55;;;3.95;;
49015;SDS011;34830;44.064;12.566;2023-06-24T01:45:26;12.90;;;3.22;;
49015;SDS011;34830;44.064;12.566;2023-06-24T01:48:14;17.30;;;3.50;;
49015;SDS011;34830;44.064;12.566;2023-06-24T01:50:38;12.15;;;4.30;;
49015;SDS011;34830;44.064;12.566;2023-06-24T01:53:06;18.17;;;3.60;;
49015;SDS011;34830;44.064;12.566;2023-06-24T01:55:33;19.65;;;3.80;;
49015;SDS011;34830;44.064;12.566;2023-06-24T01:58:00;19.73;;;4.78;;
49015;SDS011;34830;44.064;12.566;2023-06-24T02:00:27;22.27;;;4.00;;
49015;SDS011;34830;44.064;12.566;2023-06-24T02:02:54;25.63;;;4.85;;
49015;SDS011;34830;44.064;12.566;2023-06-24T02:05:20;19.23;;;3.92;;
49015;SDS011;34830;44.064;12.566;2023-06-24T02:07:46;20.35;;;4.10;;
49015;SDS011;34830;44.064;12.566;2023-06-24T02:10:13;23.30;;;5.00;;
49015;SDS011;34830;44.064;12.566;2023-06-24T02:12:39;13.40;;;3.50;;
49015;SDS011;34830;44.064;12.566;2023-06-24T02:15:06;17.08;;;4.80;;
49015;SDS011;34830;44.064;12.566;2023-06-24T02:17:33;11.75;;;4.13;;
49015;SDS011;34830;44.064;12.566;2023-06-24T02:19:59;9.73;;;2.90;;
49015;SDS011;34830;44.064;12.566;2023-06-24T02:22:25;13.90;;;3.05;;
49015;SDS011;34830;44.064;12.566;2023-06-24T02:24:51;10.88;;;3.15;;
49015;SDS011;34830;44.064;12.566;2023-06-24T02:27:18;13.57;;;3.65;;
49015;SDS011;34830;44.064;12.566;2023-06-24T02:29:45;12.10;;;3.58;;
49015;SDS011;34830;44.064;12.566;2023-06-24T02:32:11;13.75;;;3.47;;
49015;SDS011;34830;44.064;12.566;2023-06-24T02:34:37;26.00;;;3.88;;
49015;SDS011;34830;44.064;12.566;2023-06-24T02:37:04;28.10;;;4.88;;
49015;SDS011;34830;44.064;12.566;2023-06-24T02:39:31;26.27;;;4.53;;
49015;SDS011;34830;44.064;12.566;2023-06-24T02:41:57;21.15;;;4.53;;
49015;SDS011;34830;44.064;12.566;2023-06-24T02:44:23;30.90;;;5.63;;
49015;SDS011;34830;44.064;12.566;2023-06-24T02:46:50;27.90;;;5.22;;
49015;SDS011;34830;44.064;12.566;2023-06-24T02:49:16;21.50;;;4.25;;
49015;SDS011;34830;44.064;12.566;2023-06-24T02:51:43;17.90;;;3.67;;
49015;SDS011;34830;44.064;12.566;2023-06-24T02:54:09;23.00;;;4.28;;
49015;SDS011;34830;44.064;12.566;2023-06-24T02:56:57;21.45;;;4.50;;
49015;SDS011;34830;44.064;12.566;2023-06-24T02:59:32;28.65;;;4.28;;
49015;SDS011;34830;44.064;12.566;2023-06-24T03:02:00;25.85;;;3.80;;
49015;SDS011;34830;44.064;12.566;2023-06-24T03:04:27;18.45;;;4.45;;
49015;SDS011;34830;44.064;12.566;2023-06-24T03:06:53;33.67;;;5.18;;
49015;SDS011;34830;44.064;12.566;2023-06-24T03:09:19;20.27;;;4.35;;
49015;SDS011;34830;44.064;12.566;2023-06-24T03:11:47;21.40;;;3.92;;
49015;SDS011;34830;44.064;12.566;2023-06-24T03:14:20;15.40;;;4.35;;
49015;SDS011;34830;44.064;12.566;2023-06-24T03:16:46;26.42;;;5.05;;
49015;SDS011;34830;44.064;12.566;2023-06-24T03:19:15;23.98;;;4.30;;
49015;SDS011;34830;44.064;12.566;2023-06-24T03:21:41;28.15;;;5.15;;
49015;SDS011;34830;44.064;12.566;2023-06-24T03:24:11;29.75;;;4.88;;
49015;SDS011;34830;44.064;12.566;2023-06-24T03:26:38;24.30;;;5.53;;
49015;SDS011;34830;44.064;12.566;2023-06-24T03:29:07;28.83;;;4.95;;
49015;SDS011;34830;44.064;12.566;2023-06-24T03:31:34;31.98;;;6.90;;
49015;SDS011;34830;44.064;12.566;2023-06-24T03:34:00;25.02;;;5.13;;
49015;SDS011;34830;44.064;12.566;2023-06-24T03:36:27;18.83;;;5.25;;
49015;SDS011;34830;44.064;12.566;2023-06-24T03:38:53;27.80;;;5.53;;
49015;SDS011;34830;44.064;12.566;2023-06-24T03:41:19;31.55;;;6.57;;
49015;SDS011;34830;44.064;12.566;2023-06-24T03:43:45;19.85;;;4.43;;
49015;SDS011;34830;44.064;12.566;2023-06-24T03:46:11;13.15;;;3.47;;
49015;SDS011;34830;44.064;12.566;2023-06-24T03:48:37;24.70;;;4.43;;
49015;SDS011;34830;44.064;12.566;2023-06-24T03:51:03;16.45;;;3.83;;
49015;SDS011;34830;44.064;12.566;2023-06-24T03:53:29;18.35;;;4.80;;
49015;SDS011;34830;44.064;12.566;2023-06-24T03:55:55;18.33;;;4.15;;
49015;SDS011;34830;44.064;12.566;2023-06-24T03:58:21;19.45;;;3.90;;
49015;SDS011;34830;44.064;12.566;2023-06-24T04:00:48;14.20;;;3.85;;
49015;SDS011;34830;44.064;12.566;2023-06-24T04:03:18;22.73;;;4.20;;
49015;SDS011;34830;44.064;12.566;2023-06-24T04:05:44;15.35;;;3.90;;
49015;SDS011;34830;44.064;12.566;2023-06-24T04:08:10;15.18;;;3.63;;
49015;SDS011;34830;44.064;12.566;2023-06-24T04:10:36;28.88;;;5.55;;
49015;SDS011;34830;44.064;12.566;2023-06-24T04:13:03;18.17;;;3.47;;
49015;SDS011;34830;44.064;12.566;2023-06-24T04:15:29;17.70;;;3.83;;
49015;SDS011;34830;44.064;12.566;2023-06-24T04:17:55;18.23;;;4.40;;
49015;SDS011;34830;44.064;12.566;2023-06-24T04:20:20;13.65;;;3.40;;
49015;SDS011;34830;44.064;12.566;2023-06-24T04:22:46;21.25;;;4.78;;
49015;SDS011;34830;44.064;12.566;2023-06-24T04:25:12;24.42;;;4.15;;
49015;SDS011;34830;44.064;12.566;2023-06-24T04:27:38;19.88;;;4.25;;
49015;SDS011;34830;44.064;12.566;2023-06-24T04:30:06;15.60;;;4.30;;
49015;SDS011;34830;44.064;12.566;2023-06-24T04:32:32;19.50;;;3.70;;
49015;SDS011;34830;44.064;12.566;2023-06-24T04:34:59;25.00;;;4.47;;
49015;SDS011;34830;44.064;12.566;2023-06-24T04:37:26;17.65;;;4.25;;
49015;SDS011;34830;44.064;12.566;2023-06-24T04:39:53;11.25;;;3.45;;
49015;SDS011;34830;44.064;12.566;2023-06-24T04:42:18;17.27;;;4.20;;
49015;SDS011;34830;44.064;12.566;2023-06-24T04:44:44;14.15;;;3.03;;
49015;SDS011;34830;44.064;12.566;2023-06-24T04:47:10;17.63;;;4.97;;
49015;SDS011;34830;44.064;12.566;2023-06-24T04:49:36;14.50;;;4.50;;
49015;SDS011;34830;44.064;12.566;2023-06-24T04:52:02;18.17;;;3.55;;
49015;SDS011;34830;44.064;12.566;2023-06-24T04:54:28;10.25;;;3.00;;
49015;SDS011;34830;44.064;12.566;2023-06-24T04:56:54;12.95;;;3.20;;
49015;SDS011;34830;44.064;12.566;2023-06-24T04:59:23;14.73;;;3.35;;
49015;SDS011;34830;44.064;12.566;2023-06-24T05:01:48;9.82;;;3.00;;
49015;SDS011;34830;44.064;12.566;2023-06-24T05:04:14;13.35;;;3.63;;
49015;SDS011;34830;44.064;12.566;2023-06-24T05:06:40;17.50;;;3.88;;
49015;SDS011;34830;44.064;12.566;2023-06-24T05:09:05;17.30;;;3.58;;
49015;SDS011;34830;44.064;12.566;2023-06-24T05:11:31;20.10;;;5.80;;
49015;SDS011;34830;44.064;12.566;2023-06-24T05:13:57;16.80;;;3.30;;
49015;SDS011;34830;44.064;12.566;2023-06-24T05:16:23;11.98;;;3.33;;
49015;SDS011;34830;44.064;12.566;2023-06-24T05:18:49;14.93;;;3.40;;
49015;SDS011;34830;44.064;12.566;2023-06-24T05:21:15;13.98;;;3.08;;
49015;SDS011;34830;44.064;12.566;2023-06-24T05:23:41;12.55;;;2.85;;
49015;SDS011;34830;44.064;12.566;2023-06-24T05:26:07;12.95;;;3.50;;
49015;SDS011;34830;44.064;12.566;2023-06-24T05:28:33;16.10;;;4.10;;
49015;SDS011;34830;44.064;12.566;2023-06-24T05:30:58;15.20;;;3.33;;
49015;SDS011;34830;44.064;12.566;2023-06-24T05:33:24;15.82;;;3.33;;
49015;SDS011;34830;44.064;12.566;2023-06-24T05:35:50;17.98;;;4.13;;
49015;SDS011;34830;44.064;12.566;2023-06-24T05:38:16;13.68;;;3.45;;
49015;SDS011;34830;44.064;12.566;2023-06-24T05:40:42;10.13;;;3.17;;
49015;SDS011;34830;44.064;12.566;2023-06-24T05:43:07;12.85;;;3.53;;
49015;SDS011;34830;44.064;12.566;2023-06-24T05:45:33;15.32;;;4.05;;
49015;SDS011;34830;44.064;12.566;2023-06-24T05:47:59;14.98;;;3.50;;
49015;SDS011;34830;44.064;12.566;2023-06-24T05:50:25;30.02;;;5.45;;
49015;SDS011;34830;44.064;12.566;2023-06-24T05:52:50;13.75;;;3.70;;
49015;SDS011;34830;44.064;12.566;2023-06-24T05:55:16;13.77;;;3.25;;
49015;SDS011;34830;44.064;12.566;2023-06-24T05:57:42;13.02;;;2.97;;
49015;SDS011;34830;44.064;12.566;2023-06-24T06:00:08;13.13;;;2.90;;
49015;SDS011;34830;44.064;12.566;2023-06-24T06:02:41;12.63;;;3.60;;
49015;SDS011;34830;44.064;12.566;2023-06-24T06:05:07;10.85;;;3.15;;
49015;SDS011;34830;44.064;12.566;2023-06-24T06:07:33;11.88;;;3.33;;
49015;SDS011;34830;44.064;12.566;2023-06-24T06:09:59;13.07;;;3.92;;
49015;SDS011;34830;44.064;12.566;2023-06-24T06:12:26;10.68;;;3.65;;
49015;SDS011;34830;44.064;12.566;2023-06-24T06:14:51;12.95;;;3.63;;
49015;SDS011;34830;44.064;12.566;2023-06-24T06:17:17;13.05;;;3.75;;
49015;SDS011;34830;44.064;12.566;2023-06-24T06:19:43;9.32;;;3.72;;
49015;SDS011;34830;44.064;12.566;2023-06-24T06:22:12;10.98;;;3.20;;
49015;SDS011;34830;44.064;12.566;2023-06-24T06:24:37;11.82;;;3.72;;
49015;SDS011;34830;44.064;12.566;2023-06-24T06:27:03;12.63;;;2.88;;
49015;SDS011;34830;44.064;12.566;2023-06-24T06:29:29;12.55;;;3.25;;
49015;SDS011;34830;44.064;12.566;2023-06-24T06:31:55;12.18;;;3.00;;
49015;SDS011;34830;44.064;12.566;2023-06-24T06:34:22;12.13;;;3.25;;
49015;SDS011;34830;44.064;12.566;2023-06-24T06:36:48;14.32;;;3.67;;
49015;SDS011;34830;44.064;12.566;2023-06-24T06:39:14;9.40;;;2.70;;
49015;SDS011;34830;44.064;12.566;2023-06-24T06:41:39;13.02;;;3.25;;
49015;SDS011;34830;44.064;12.566;2023-06-24T06:44:14;12.35;;;3.45;;
49015;SDS011;34830;44.064;12.566;2023-06-24T06:46:41;14.95;;;3.33;;
49015;SDS011;34830;44.064;12.566;2023-06-24T06:49:07;10.02;;;3.63;;
49015;SDS011;34830;44.064;12.566;2023-06-24T06:51:33;16.10;;;3.88;;
49015;SDS011;34830;44.064;12.566;2023-06-24T06:53:59;11.02;;;3.10;;
49015;SDS011;34830;44.064;12.566;2023-06-24T06:56:25;11.60;;;2.95;;
49015;SDS011;34830;44.064;12.566;2023-06-24T06:58:51;8.50;;;3.00;;
49015;SDS011;34830;44.064;12.566;2023-06-24T07:01:17;10.40;;;2.97;;
49015;SDS011;34830;44.064;12.566;2023-06-24T07:03:43;11.10;;;3.47;;
49015;SDS011;34830;44.064;12.566;2023-06-24T07:06:08;10.52;;;2.78;;
49015;SDS011;34830;44.064;12.566;2023-06-24T07:08:34;8.10;;;2.50;;
49015;SDS011;34830;44.064;12.566;2023-06-24T07:11:01;10.68;;;3.22;;
49015;SDS011;34830;44.064;12.566;2023-06-24T07:13:27;9.52;;;2.67;;
49015;SDS011;34830;44.064;12.566;2023-06-24T07:15:53;8.95;;;2.60;;
49015;SDS011;34830;44.064;12.566;2023-06-24T07:18:18;7.00;;;2.15;;
49015;SDS011;34830;44.064;12.566;2023-06-24T07:20:44;7.50;;;2.63;;
49015;SDS011;34830;44.064;12.566;2023-06-24T07:23:10;12.40;;;3.00;;
49015;SDS011;34830;44.064;12.566;2023-06-24T07:25:37;9.93;;;2.92;;
49015;SDS011;34830;44.064;12.566;2023-06-24T07:28:02;8.93;;;2.65;;
49015;SDS011;34830;44.064;12.566;2023-06-24T07:30:28;9.93;;;3.33;;
49015;SDS011;34830;44.064;12.566;2023-06-24T07:32:54;11.80;;;2.40;;
49015;SDS011;34830;44.064;12.566;2023-06-24T07:35:20;7.55;;;2.75;;
49015;SDS011;34830;44.064;12.566;2023-06-24T07:37:46;11.73;;;2.42;;
49015;SDS011;34830;44.064;12.566;2023-06-24T07:40:11;8.48;;;2.53;;
49015;SDS011;34830;44.064;12.566;2023-06-24T07:42:37;10.02;;;2.72;;
49015;SDS011;34830;44.064;12.566;2023-06-24T07:45:03;10.75;;;2.47;;
49015;SDS011;34830;44.064;12.566;2023-06-24T07:47:29;6.82;;;2.28;;
49015;SDS011;34830;44.064;12.566;2023-06-24T07:49:55;9.32;;;3.05;;
49015;SDS011;34830;44.064;12.566;2023-06-24T07:52:20;10.63;;;2.80;;
49015;SDS011;34830;44.064;12.566;2023-06-24T07:54:46;13.23;;;4.13;;
49015;SDS011;34830;44.064;12.566;2023-06-24T07:57:12;8.52;;;2.60;;
49015;SDS011;34830;44.064;12.566;2023-06-24T07:59:38;11.13;;;3.42;;
49015;SDS011;34830;44.064;12.566;2023-06-24T08:02:03;13.05;;;2.80;;
49015;SDS011;34830;44.064;12.566;2023-06-24T08:04:29;9.52;;;2.83;;
49015;SDS011;34830;44.064;12.566;2023-06-24T08:06:55;10.95;;;3.17;;
49015;SDS011;34830;44.064;12.566;2023-06-24T08:09:21;7.90;;;2.58;;
49015;SDS011;34830;44.064;12.566;2023-06-24T08:11:46;11.80;;;2.97;;
49015;SDS011;34830;44.064;12.566;2023-06-24T08:14:12;8.10;;;2.88;;
49015;SDS011;34830;44.064;12.566;2023-06-24T08:16:38;11.07;;;2.92;;
49015;SDS011;34830;44.064;12.566;2023-06-24T08:19:04;10.52;;;3.50;;
49015;SDS011;34830;44.064;12.566;2023-06-24T08:21:29;7.95;;;3.38;;
49015;SDS011;34830;44.064;12.566;2023-06-24T08:23:55;8.00;;;2.70;;
49015;SDS011;34830;44.064;12.566;2023-06-24T08:26:21;7.10;;;2.40;;
49015;SDS011;34830;44.064;12.566;2023-06-24T08:28:47;6.97;;;2.75;;
49015;SDS011;34830;44.064;12.566;2023-06-24T08:31:13;8.70;;;2.78;;
49015;SDS011;34830;44.064;12.566;2023-06-24T08:33:42;10.05;;;2.90;;
49015;SDS011;34830;44.064;12.566;2023-06-24T08:36:08;8.73;;;3.08;;
49015;SDS011;34830;44.064;12.566;2023-06-24T08:38:34;6.85;;;2.40;;
49015;SDS011;34830;44.064;12.566;2023-06-24T08:41:00;18.63;;;2.65;;
49015;SDS011;34830;44.064;12.566;2023-06-24T08:43:25;9.07;;;2.85;;
49015;SDS011;34830;44.064;12.566;2023-06-24T08:45:51;13.57;;;2.90;;
49015;SDS011;34830;44.064;12.566;2023-06-24T08:48:17;8.57;;;2.85;;
49015;SDS011;34830;44.064;12.566;2023-06-24T08:50:46;12.63;;;3.92;;
49015;SDS011;34830;44.064;12.566;2023-06-24T08:53:14;11.20;;;3.42;;
49015;SDS011;34830;44.064;12.566;2023-06-24T08:55:41;9.77;;;2.83;;
49015;SDS011;34830;44.064;12.566;2023-06-24T08:58:08;12.25;;;3.75;;
49015;SDS011;34830;44.064;12.566;2023-06-24T09:00:34;7.28;;;2.70;;
49015;SDS011;34830;44.064;12.566;2023-06-24T09:03:00;30.25;;;4.85;;
49015;SDS011;34830;44.064;12.566;2023-06-24T09:05:26;8.15;;;2.90;;
49015;SDS011;34830;44.064;12.566;2023-06-24T09:07:52;19.48;;;3.63;;
49015;SDS011;34830;44.064;12.566;2023-06-24T09:12:57;7.55;;;3.08;;
49015;SDS011;34830;44.064;12.566;2023-06-24T09:15:22;16.60;;;3.72;;
49015;SDS011;34830;44.064;12.566;2023-06-24T09:17:48;16.92;;;3.40;;
49015;SDS011;34830;44.064;12.566;2023-06-24T09:20:14;7.38;;;3.33;;
49015;SDS011;34830;44.064;12.566;2023-06-24T09:22:40;10.80;;;2.72;;
49015;SDS011;34830;44.064;12.566;2023-06-24T09:25:07;17.60;;;3.42;;
49015;SDS011;34830;44.064;12.566;2023-06-24T09:27:33;10.98;;;3.67;;
49015;SDS011;34830;44.064;12.566;2023-06-24T09:29:58;9.60;;;2.85;;
49015;SDS011;34830;44.064;12.566;2023-06-24T09:32:30;11.10;;;3.00;;
49015;SDS011;34830;44.064;12.566;2023-06-24T09:34:56;7.28;;;2.97;;
49015;SDS011;34830;44.064;12.566;2023-06-24T09:37:22;11.35;;;3.33;;
49015;SDS011;34830;44.064;12.566;2023-06-24T09:39:56;8.70;;;3.25;;
49015;SDS011;34830;44.064;12.566;2023-06-24T09:42:22;7.10;;;3.00;;
49015;SDS011;34830;44.064;12.566;2023-06-24T09:44:55;9.50;;;3.78;;
49015;SDS011;34830;44.064;12.566;2023-06-24T09:47:21;11.50;;;3.85;;
49015;SDS011;34830;44.064;12.566;2023-06-24T09:49:53;7.13;;;2.90;;
49015;SDS011;34830;44.064;12.566;2023-06-24T09:52:20;8.90;;;4.10;;
49015;SDS011;34830;44.064;12.566;2023-06-24T09:54:46;11.18;;;3.67;;
49015;SDS011;34830;44.064;12.566;2023-06-24T09:57:12;9.95;;;3.97;;
49015;SDS011;34830;44.064;12.566;2023-06-24T09:59:39;9.93;;;3.35;;
49015;SDS011;34830;44.064;12.566;2023-06-24T10:02:05;13.05;;;2.95;;
49015;SDS011;34830;44.064;12.566;2023-06-24T10:04:34;8.07;;;3.10;;
49015;SDS011;34830;44.064;12.566;2023-06-24T10:07:00;7.07;;;3.30;;
49015;SDS011;34830;44.064;12.566;2023-06-24T10:09:27;7.60;;;3.58;;
49015;SDS011;34830;44.064;12.566;2023-06-24T10:11:54;9.02;;;3.63;;
49015;SDS011;34830;44.064;12.566;2023-06-24T10:14:19;9.00;;;3.25;;
49015;SDS011;34830;44.064;12.566;2023-06-24T10:16:45;5.00;;;2.70;;
49015;SDS011;34830;44.064;12.566;2023-06-24T10:19:13;7.20;;;2.92;;
49015;SDS011;34830;44.064;12.566;2023-06-24T10:24:10;10.20;;;3.03;;
49015;SDS011;34830;44.064;12.566;2023-06-24T10:26:36;11.57;;;3.38;;
49015;SDS011;34830;44.064;12.566;2023-06-24T10:36:53;5.50;;;2.75;;
49015;SDS011;34830;44.064;12.566;2023-06-24T10:44:49;9.10;;;3.35;;
49015;SDS011;34830;44.064;12.566;2023-06-24T10:47:16;8.75;;;3.00;;
49015;SDS011;34830;44.064;12.566;2023-06-24T10:49:42;9.63;;;2.58;;
49015;SDS011;34830;44.064;12.566;2023-06-24T10:52:08;10.60;;;3.65;;
49015;SDS011;34830;44.064;12.566;2023-06-24T10:54:35;8.93;;;3.63;;
49015;SDS011;34830;44.064;12.566;2023-06-24T10:57:01;7.05;;;2.58;;
49015;SDS011;34830;44.064;12.566;2023-06-24T10:59:27;15.52;;;5.82;;
49015;SDS011;34830;44.064;12.566;2023-06-24T11:01:53;7.40;;;2.80;;
49015;SDS011;34830;44.064;12.566;2023-06-24T11:04:19;5.55;;;2.47;;
49015;SDS011;34830;44.064;12.566;2023-06-24T11:07:00;8.55;;;2.60;;
49015;SDS011;34830;44.064;12.566;2023-06-24T11:09:26;5.45;;;2.65;;
49015;SDS011;34830;44.064;12.566;2023-06-24T11:11:52;7.28;;;3.13;;
49015;SDS011;34830;44.064;12.566;2023-06-24T11:14:21;6.28;;;2.38;;
49015;SDS011;34830;44.064;12.566;2023-06-24T11:16:47;7.70;;;3.13;;
49015;SDS011;34830;44.064;12.566;2023-06-24T11:19:12;5.15;;;2.53;;
49015;SDS011;34830;44.064;12.566;2023-06-24T11:21:38;5.00;;;2.58;;
49015;SDS011;34830;44.064;12.566;2023-06-24T11:24:04;9.15;;;2.42;;
49015;SDS011;34830;44.064;12.566;2023-06-24T11:26:30;7.70;;;2.40;;
49015;SDS011;34830;44.064;12.566;2023-06-24T11:28:56;7.03;;;2.30;;
49015;SDS011;34830;44.064;12.566;2023-06-24T11:31:25;3.50;;;1.77;;
49015;SDS011;34830;44.064;12.566;2023-06-24T11:33:51;4.38;;;2.03;;
49015;SDS011;34830;44.064;12.566;2023-06-24T11:36:20;4.47;;;2.38;;
49015;SDS011;34830;44.064;12.566;2023-06-24T11:38:46;5.53;;;2.88;;
49015;SDS011;34830;44.064;12.566;2023-06-24T11:41:12;8.43;;;2.40;;
49015;SDS011;34830;44.064;12.566;2023-06-24T11:43:43;5.38;;;2.10;;
49015;SDS011;34830;44.064;12.566;2023-06-24T11:46:08;4.55;;;2.30;;
49015;SDS011;34830;44.064;12.566;2023-06-24T11:48:40;5.88;;;2.60;;
49015;SDS011;34830;44.064;12.566;2023-06-24T11:51:13;8.90;;;2.38;;
49015;SDS011;34830;44.064;12.566;2023-06-24T11:53:42;3.75;;;2.38;;
49015;SDS011;34830;44.064;12.566;2023-06-24T11:56:11;4.07;;;2.10;;
49015;SDS011;34830;44.064;12.566;2023-06-24T11:58:37;7.28;;;2.63;;
49015;SDS011;34830;44.064;12.566;2023-06-24T12:01:03;6.13;;;2.60;;
49015;SDS011;34830;44.064;12.566;2023-06-24T12:03:32;6.78;;;2.83;;
49015;SDS011;34830;44.064;12.566;2023-06-24T12:05:59;6.72;;;2.53;;
49015;SDS011;34830;44.064;12.566;2023-06-24T12:08:25;4.03;;;1.88;;
49015;SDS011;34830;44.064;12.566;2023-06-24T12:10:51;4.32;;;2.30;;
49015;SDS011;34830;44.064;12.566;2023-06-24T12:13:17;5.35;;;2.33;;
49015;SDS011;34830;44.064;12.566;2023-06-24T12:15:42;4.63;;;2.00;;
49015;SDS011;34830;44.064;12.566;2023-06-24T12:18:09;4.75;;;1.85;;
49015;SDS011;34830;44.064;12.566;2023-06-24T12:20:34;6.10;;;2.15;;
49015;SDS011;34830;44.064;12.566;2023-06-24T12:23:02;5.55;;;2.17;;
49015;SDS011;34830;44.064;12.566;2023-06-24T12:25:29;3.55;;;2.20;;
49015;SDS011;34830;44.064;12.566;2023-06-24T12:27:54;3.20;;;2.03;;
49015;SDS011;34830;44.064;12.566;2023-06-24T12:30:20;4.15;;;2.25;;
49015;SDS011;34830;44.064;12.566;2023-06-24T12:32:49;12.55;;;2.53;;
49015;SDS011;34830;44.064;12.566;2023-06-24T12:35:15;8.65;;;2.03;;
49015;SDS011;34830;44.064;12.566;2023-06-24T12:37:41;7.38;;;2.88;;
49015;SDS011;34830;44.064;12.566;2023-06-24T12:40:07;4.32;;;2.13;;
49015;SDS011;34830;44.064;12.566;2023-06-24T12:42:32;6.70;;;2.05;;
49015;SDS011;34830;44.064;12.566;2023-06-24T12:44:58;3.83;;;2.03;;
49015;SDS011;34830;44.064;12.566;2023-06-24T12:47:24;5.68;;;2.25;;
49015;SDS011;34830;44.064;12.566;2023-06-24T12:49:50;20.55;;;2.20;;
49015;SDS011;34830;44.064;12.566;2023-06-24T12:52:16;8.95;;;2.45;;
49015;SDS011;34830;44.064;12.566;2023-06-24T12:54:42;7.93;;;2.30;;
49015;SDS011;34830;44.064;12.566;2023-06-24T12:57:08;5.90;;;1.88;;
49015;SDS011;34830;44.064;12.566;2023-06-24T12:59:33;5.25;;;1.90;;
49015;SDS011;34830;44.064;12.566;2023-06-24T13:01:59;8.05;;;2.30;;
49015;SDS011;34830;44.064;12.566;2023-06-24T13:04:26;5.47;;;2.42;;
49015;SDS011;34830;44.064;12.566;2023-06-24T13:06:52;3.83;;;2.15;;
49015;SDS011;34830;44.064;12.566;2023-06-24T13:09:18;4.93;;;1.80;;
49015;SDS011;34830;44.064;12.566;2023-06-24T13:11:44;4.10;;;2.00;;
49015;SDS011;34830;44.064;12.566;2023-06-24T13:14:10;5.40;;;2.33;;
49015;SDS011;34830;44.064;12.566;2023-06-24T13:16:36;4.55;;;1.90;;
49015;SDS011;34830;44.064;12.566;2023-06-24T13:19:02;4.90;;;2.42;;
49015;SDS011;34830;44.064;12.566;2023-06-24T13:21:28;6.28;;;2.10;;
49015;SDS011;34830;44.064;12.566;2023-06-24T13:23:54;5.43;;;2.25;;
49015;SDS011;34830;44.064;12.566;2023-06-24T13:26:19;6.72;;;2.67;;
49015;SDS011;34830;44.064;12.566;2023-06-24T13:28:45;3.40;;;1.80;;
49015;SDS011;34830;44.064;12.566;2023-06-24T13:31:11;4.05;;;2.15;;
49015;SDS011;34830;44.064;12.566;2023-06-24T13:33:37;4.88;;;2.30;;
49015;SDS011;34830;44.064;12.566;2023-06-24T13:36:04;2.97;;;1.85;;
49015;SDS011;34830;44.064;12.566;2023-06-24T13:38:30;2.70;;;1.70;;
49015;SDS011;34830;44.064;12.566;2023-06-24T13:40:56;6.80;;;2.40;;
49015;SDS011;34830;44.064;12.566;2023-06-24T13:43:22;2.95;;;1.67;;
49015;SDS011;34830;44.064;12.566;2023-06-24T13:45:47;5.15;;;2.03;;
49015;SDS011;34830;44.064;12.566;2023-06-24T13:48:13;5.80;;;2.00;;
49015;SDS011;34830;44.064;12.566;2023-06-24T13:50:39;5.35;;;2.17;;
49015;SDS011;34830;44.064;12.566;2023-06-24T13:53:05;3.42;;;1.73;;
49015;SDS011;34830;44.064;12.566;2023-06-24T13:55:31;4.70;;;1.70;;
49015;SDS011;34830;44.064;12.566;2023-06-24T13:57:57;2.50;;;1.50;;
49015;SDS011;34830;44.064;12.566;2023-06-24T14:00:23;3.92;;;2.00;;
49015;SDS011;34830;44.064;12.566;2023-06-24T14:02:49;3.83;;;1.67;;
49015;SDS011;34830;44.064;12.566;2023-06-24T14:05:15;4.95;;;1.75;;
49015;SDS011;34830;44.064;12.566;2023-06-24T14:07:40;5.10;;;2.05;;
49015;SDS011;34830;44.064;12.566;2023-06-24T14:10:06;5.75;;;2.38;;
49015;SDS011;34830;44.064;12.566;2023-06-24T14:12:32;3.70;;;1.73;;
49015;SDS011;34830;44.064;12.566;2023-06-24T14:14:58;2.92;;;1.60;;
49015;SDS011;34830;44.064;12.566;2023-06-24T14:17:24;5.53;;;3.30;;
49015;SDS011;34830;44.064;12.566;2023-06-24T14:19:50;3.08;;;1.80;;
49015;SDS011;34830;44.064;12.566;2023-06-24T14:22:16;7.13;;;1.55;;
49015;SDS011;34830;44.064;12.566;2023-06-24T14:24:43;4.90;;;1.98;;
49015;SDS011;34830;44.064;12.566;2023-06-24T14:27:09;3.30;;;1.90;;
49015;SDS011;34830;44.064;12.566;2023-06-24T14:29:35;3.90;;;2.00;;
49015;SDS011;34830;44.064;12.566;2023-06-24T14:32:00;5.05;;;1.50;;
49015;SDS011;34830;44.064;12.566;2023-06-24T14:34:26;4.55;;;2.13;;
49015;SDS011;34830;44.064;12.566;2023-06-24T14:36:55;4.40;;;1.90;;
49015;SDS011;34830;44.064;12.566;2023-06-24T14:39:21;3.38;;;1.80;;
49015;SDS011;34830;44.064;12.566;2023-06-24T14:41:47;3.90;;;2.40;;
49015;SDS011;34830;44.064;12.566;2023-06-24T14:44:12;4.75;;;2.05;;
49015;SDS011;34830;44.064;12.566;2023-06-24T14:46:38;5.20;;;2.15;;
49015;SDS011;34830;44.064;12.566;2023-06-24T14:49:04;2.78;;;1.30;;
49015;SDS011;34830;44.064;12.566;2023-06-24T14:51:30;3.30;;;1.63;;
49015;SDS011;34830;44.064;12.566;2023-06-24T14:53:55;3.40;;;1.50;;
49015;SDS011;34830;44.064;12.566;2023-06-24T14:56:21;4.80;;;1.55;;
49015;SDS011;34830;44.064;12.566;2023-06-24T14:58:47;7.05;;;2.08;;